Pagrindinis puslapis
METAR-TAF:

METAR-TAF

Oro uostai :

Esbjergas, Danija

platuma: 55-32N, ilguma: 008-34E, Aukštis: 30 m

Dabartinis oras

Ataskaita buvo paskelbta 21 minutes, ne 18:20 UTC
Vėjas 10 kt iš Pietų/Pietryčių
Temperatūra 17°C
Drėgmė 88%
Slėgis 999 hPa
Matomumas: 9000 m
lietus

METAR: EKEB 231820Z AUTO 16010KT 9000 -RA BKN054/// 17/15 Q0999

Laikas: 20:41 (18:41 UTC)

Prognozė

Ataskaita buvo paskelbta 1 valandą ir 17 minutes, ne 17:24 UTC
Prognozė galioja nuo 23 metu 18 UTC su 23 metu 22 UTC
Vėjas 12 kt iš Pietų/Pietvakarių
Matomumas 10 km arba daugiau
Išsisklaidę debesys ne aukštis 1200 ft
Su prošvaistėmis ne aukštis 1500 ft
Laikinai
nuo 23 metu 18 UTC su 23 metu 22 UTC
Matomumas: 3000 m
Su prošvaistėmis ne aukštis 800 ft
Išsisklaidę debesys ne aukštis 2000 ft, Liūtiniai kamuoliniai debesys.
lietus

TAF: EKEB 231724Z 2318/2322 20012KT 9999 SCT012 BKN015 TEMPO 2318/2322 3000 SHRA BKN008 SCT020CB

Orai ataskaitas ir orų prognozės (METAR, TAF).

turimą stotys yra geltonos ir raudonos taškus žemėlapyje.

Perkelti pele per norėdami pamatyti stoties vardą.

Tada spustelėkite, norėdami matyti oro stebėjimo ir prognozės.

Norėdami pakeisti žemėlapį: spustelėkite ant žalios mygtukų su juodo kryžiaus žemyn,; žalią mygtuką su brūkšneliu, jei norite nutolinti; arba žalių rodyklių gretimoms žemėlapius.


METAR-TAF: